sensor_id;sensor_type;location;lat;lon;timestamp;temperature;humidity
18341;DHT22;9296;48.084;16.352;2022-07-18T00:00:43;18.00;99.90
18341;DHT22;9296;48.084;16.352;2022-07-18T00:03:10;18.00;99.90
18341;DHT22;9296;48.084;16.352;2022-07-18T00:05:37;17.90;99.90
18341;DHT22;9296;48.084;16.352;2022-07-18T00:08:04;17.90;99.90
18341;DHT22;9296;48.084;16.352;2022-07-18T00:10:31;17.80;99.90
18341;DHT22;9296;48.084;16.352;2022-07-18T00:12:58;17.80;99.90
18341;DHT22;9296;48.084;16.352;2022-07-18T00:15:25;17.80;99.90
18341;DHT22;9296;48.084;16.352;2022-07-18T00:17:53;17.80;99.90
18341;DHT22;9296;48.084;16.352;2022-07-18T00:20:20;17.70;99.90
18341;DHT22;9296;48.084;16.352;2022-07-18T00:22:47;17.70;99.90
18341;DHT22;9296;48.084;16.352;2022-07-18T00:25:14;17.70;99.90
18341;DHT22;9296;48.084;16.352;2022-07-18T00:27:40;17.60;99.90
18341;DHT22;9296;48.084;16.352;2022-07-18T00:30:09;17.60;99.90
18341;DHT22;9296;48.084;16.352;2022-07-18T00:32:36;17.60;99.90
18341;DHT22;9296;48.084;16.352;2022-07-18T00:35:05;17.60;99.90
18341;DHT22;9296;48.084;16.352;2022-07-18T00:37:32;17.60;99.90
18341;DHT22;9296;48.084;16.352;2022-07-18T00:39:59;17.60;99.90
18341;DHT22;9296;48.084;16.352;2022-07-18T00:42:26;17.50;99.90
18341;DHT22;9296;48.084;16.352;2022-07-18T00:44:53;17.50;99.90
18341;DHT22;9296;48.084;16.352;2022-07-18T00:47:21;17.50;99.90
18341;DHT22;9296;48.084;16.352;2022-07-18T00:50:09;17.50;99.90
18341;DHT22;9296;48.084;16.352;2022-07-18T00:52:36;17.50;99.90
18341;DHT22;9296;48.084;16.352;2022-07-18T00:55:04;17.50;99.90
18341;DHT22;9296;48.084;16.352;2022-07-18T00:57:31;17.50;99.90
18341;DHT22;9296;48.084;16.352;2022-07-18T00:59:58;17.60;99.90
18341;DHT22;9296;48.084;16.352;2022-07-18T01:02:42;17.60;99.90
18341;DHT22;9296;48.084;16.352;2022-07-18T01:05:11;17.60;99.90
18341;DHT22;9296;48.084;16.352;2022-07-18T01:07:37;17.60;99.90
18341;DHT22;9296;48.084;16.352;2022-07-18T01:10:05;17.60;99.90
18341;DHT22;9296;48.084;16.352;2022-07-18T01:12:32;17.50;99.90
18341;DHT22;9296;48.084;16.352;2022-07-18T01:14:59;17.40;99.90
18341;DHT22;9296;48.084;16.352;2022-07-18T01:17:26;17.40;99.90
18341;DHT22;9296;48.084;16.352;2022-07-18T01:20:13;17.40;99.90
18341;DHT22;9296;48.084;16.352;2022-07-18T01:22:42;17.20;99.90
18341;DHT22;9296;48.084;16.352;2022-07-18T01:25:09;17.20;99.90
18341;DHT22;9296;48.084;16.352;2022-07-18T01:27:37;17.10;99.90
18341;DHT22;9296;48.084;16.352;2022-07-18T01:30:05;17.10;99.90
18341;DHT22;9296;48.084;16.352;2022-07-18T01:32:33;17.10;99.90
18341;DHT22;9296;48.084;16.352;2022-07-18T01:35:21;17.10;99.90
18341;DHT22;9296;48.084;16.352;2022-07-18T01:37:51;17.00;99.90
18341;DHT22;9296;48.084;16.352;2022-07-18T01:40:18;17.00;99.90
18341;DHT22;9296;48.084;16.352;2022-07-18T01:42:45;17.00;99.90
18341;DHT22;9296;48.084;16.352;2022-07-18T01:45:12;17.00;99.90
18341;DHT22;9296;48.084;16.352;2022-07-18T01:47:39;17.00;99.90
18341;DHT22;9296;48.084;16.352;2022-07-18T01:50:07;16.90;99.90
18341;DHT22;9296;48.084;16.352;2022-07-18T01:52:35;16.90;99.90
18341;DHT22;9296;48.084;16.352;2022-07-18T01:55:05;16.80;99.90
18341;DHT22;9296;48.084;16.352;2022-07-18T01:57:33;16.70;99.90
18341;DHT22;9296;48.084;16.352;2022-07-18T02:00:00;16.70;99.90
18341;DHT22;9296;48.084;16.352;2022-07-18T02:02:27;16.70;99.90
18341;DHT22;9296;48.084;16.352;2022-07-18T02:04:53;16.80;99.90
18341;DHT22;9296;48.084;16.352;2022-07-18T02:07:26;16.60;99.90
18341;DHT22;9296;48.084;16.352;2022-07-18T02:09:53;16.60;99.90
18341;DHT22;9296;48.084;16.352;2022-07-18T02:12:22;16.60;99.90
18341;DHT22;9296;48.084;16.352;2022-07-18T02:14:49;16.60;99.90
18341;DHT22;9296;48.084;16.352;2022-07-18T02:17:16;16.60;99.90
18341;DHT22;9296;48.084;16.352;2022-07-18T02:19:45;16.50;99.90
18341;DHT22;9296;48.084;16.352;2022-07-18T02:22:11;16.50;99.90
18341;DHT22;9296;48.084;16.352;2022-07-18T02:24:39;16.50;99.90
18341;DHT22;9296;48.084;16.352;2022-07-18T02:27:06;16.40;99.90
18341;DHT22;9296;48.084;16.352;2022-07-18T02:29:34;16.40;99.90
18341;DHT22;9296;48.084;16.352;2022-07-18T02:32:01;16.40;99.90
18341;DHT22;9296;48.084;16.352;2022-07-18T02:38:27;16.20;99.90
18341;DHT22;9296;48.084;16.352;2022-07-18T02:40:54;16.30;99.90
18341;DHT22;9296;48.084;16.352;2022-07-18T02:43:21;16.50;99.90
18341;DHT22;9296;48.084;16.352;2022-07-18T02:45:49;16.60;99.90
18341;DHT22;9296;48.084;16.352;2022-07-18T02:48:16;16.60;99.90
18341;DHT22;9296;48.084;16.352;2022-07-18T02:51:01;16.60;99.90
18341;DHT22;9296;48.084;16.352;2022-07-18T02:53:28;16.80;99.90
18341;DHT22;9296;48.084;16.352;2022-07-18T02:55:55;16.70;99.90
18341;DHT22;9296;48.084;16.352;2022-07-18T02:58:21;16.60;99.90
18341;DHT22;9296;48.084;16.352;2022-07-18T03:00:50;16.60;99.90
18341;DHT22;9296;48.084;16.352;2022-07-18T03:03:17;16.90;99.90
18341;DHT22;9296;48.084;16.352;2022-07-18T03:09:05;16.60;99.90
18341;DHT22;9296;48.084;16.352;2022-07-18T03:11:32;16.60;99.90
18341;DHT22;9296;48.084;16.352;2022-07-18T03:13:59;16.50;99.90
18341;DHT22;9296;48.084;16.352;2022-07-18T03:16:27;16.40;99.90
18341;DHT22;9296;48.084;16.352;2022-07-18T03:18:54;16.30;99.90
18341;DHT22;9296;48.084;16.352;2022-07-18T03:21:21;16.20;99.90
18341;DHT22;9296;48.084;16.352;2022-07-18T03:23:48;16.30;99.90
18341;DHT22;9296;48.084;16.352;2022-07-18T03:26:15;16.00;99.90
18341;DHT22;9296;48.084;16.352;2022-07-18T03:28:42;16.00;99.90
18341;DHT22;9296;48.084;16.352;2022-07-18T03:31:09;15.90;99.90
18341;DHT22;9296;48.084;16.352;2022-07-18T03:33:38;15.80;99.90
18341;DHT22;9296;48.084;16.352;2022-07-18T03:36:06;15.80;99.90
18341;DHT22;9296;48.084;16.352;2022-07-18T03:38:33;15.90;99.90
18341;DHT22;9296;48.084;16.352;2022-07-18T03:41:01;15.80;99.90
18341;DHT22;9296;48.084;16.352;2022-07-18T03:43:28;15.80;99.90
18341;DHT22;9296;48.084;16.352;2022-07-18T03:45:56;15.90;99.90
18341;DHT22;9296;48.084;16.352;2022-07-18T03:48:23;16.10;99.90
18341;DHT22;9296;48.084;16.352;2022-07-18T03:50:51;16.20;99.90
18341;DHT22;9296;48.084;16.352;2022-07-18T03:53:18;16.50;99.90
18341;DHT22;9296;48.084;16.352;2022-07-18T03:55:46;16.20;99.90
18341;DHT22;9296;48.084;16.352;2022-07-18T03:58:13;16.20;99.90
18341;DHT22;9296;48.084;16.352;2022-07-18T04:00:40;16.20;99.90
18341;DHT22;9296;48.084;16.352;2022-07-18T04:03:07;16.30;99.90
18341;DHT22;9296;48.084;16.352;2022-07-18T04:05:34;16.40;99.90
18341;DHT22;9296;48.084;16.352;2022-07-18T04:08:02;16.60;99.90
18341;DHT22;9296;48.084;16.352;2022-07-18T04:10:30;16.70;99.90
18341;DHT22;9296;48.084;16.352;2022-07-18T04:12:57;16.80;99.90
18341;DHT22;9296;48.084;16.352;2022-07-18T04:15:25;16.90;99.90
18341;DHT22;9296;48.084;16.352;2022-07-18T04:17:53;17.10;99.90
18341;DHT22;9296;48.084;16.352;2022-07-18T04:20:38;17.00;99.90
18341;DHT22;9296;48.084;16.352;2022-07-18T04:23:08;17.00;99.90
18341;DHT22;9296;48.084;16.352;2022-07-18T04:25:37;16.80;99.90
18341;DHT22;9296;48.084;16.352;2022-07-18T04:28:05;16.80;99.90
18341;DHT22;9296;48.084;16.352;2022-07-18T04:30:32;16.80;99.90
18341;DHT22;9296;48.084;16.352;2022-07-18T04:33:01;16.80;99.90
18341;DHT22;9296;48.084;16.352;2022-07-18T04:35:29;16.90;99.90
18341;DHT22;9296;48.084;16.352;2022-07-18T04:37:56;16.90;99.90
18341;DHT22;9296;48.084;16.352;2022-07-18T04:40:24;16.90;99.90
18341;DHT22;9296;48.084;16.352;2022-07-18T04:42:51;17.00;99.90
18341;DHT22;9296;48.084;16.352;2022-07-18T04:45:18;17.10;99.90
18341;DHT22;9296;48.084;16.352;2022-07-18T04:47:47;17.20;99.90
18341;DHT22;9296;48.084;16.352;2022-07-18T04:50:14;17.30;99.90
18341;DHT22;9296;48.084;16.352;2022-07-18T04:52:43;17.40;99.90
18341;DHT22;9296;48.084;16.352;2022-07-18T04:55:11;17.40;99.90
18341;DHT22;9296;48.084;16.352;2022-07-18T04:57:40;17.50;99.90
18341;DHT22;9296;48.084;16.352;2022-07-18T05:00:10;17.60;99.90
18341;DHT22;9296;48.084;16.352;2022-07-18T05:02:39;17.50;99.90
18341;DHT22;9296;48.084;16.352;2022-07-18T05:05:06;17.50;99.90
18341;DHT22;9296;48.084;16.352;2022-07-18T05:07:35;17.50;99.90
18341;DHT22;9296;48.084;16.352;2022-07-18T05:10:02;17.50;99.90
18341;DHT22;9296;48.084;16.352;2022-07-18T05:12:33;17.50;99.90
18341;DHT22;9296;48.084;16.352;2022-07-18T05:15:03;17.60;99.90
18341;DHT22;9296;48.084;16.352;2022-07-18T05:17:30;17.60;99.90
18341;DHT22;9296;48.084;16.352;2022-07-18T05:19:57;17.70;99.90
18341;DHT22;9296;48.084;16.352;2022-07-18T05:22:24;17.80;99.90
18341;DHT22;9296;48.084;16.352;2022-07-18T05:24:51;17.80;99.90
18341;DHT22;9296;48.084;16.352;2022-07-18T05:27:18;17.90;99.90
18341;DHT22;9296;48.084;16.352;2022-07-18T05:29:45;17.90;99.90
18341;DHT22;9296;48.084;16.352;2022-07-18T05:32:13;18.00;99.90
18341;DHT22;9296;48.084;16.352;2022-07-18T05:34:40;18.10;99.90
18341;DHT22;9296;48.084;16.352;2022-07-18T05:37:07;18.30;99.90
18341;DHT22;9296;48.084;16.352;2022-07-18T05:39:34;18.60;99.90
18341;DHT22;9296;48.084;16.352;2022-07-18T05:42:02;18.60;99.90
18341;DHT22;9296;48.084;16.352;2022-07-18T05:44:29;18.70;99.90
18341;DHT22;9296;48.084;16.352;2022-07-18T05:46:55;18.70;99.90
18341;DHT22;9296;48.084;16.352;2022-07-18T05:49:24;18.80;99.90
18341;DHT22;9296;48.084;16.352;2022-07-18T05:52:11;19.00;99.90
18341;DHT22;9296;48.084;16.352;2022-07-18T05:54:38;19.00;99.90
18341;DHT22;9296;48.084;16.352;2022-07-18T05:57:05;19.10;99.90
18341;DHT22;9296;48.084;16.352;2022-07-18T05:59:32;19.30;99.90
18341;DHT22;9296;48.084;16.352;2022-07-18T06:01:59;19.40;99.90
18341;DHT22;9296;48.084;16.352;2022-07-18T06:04:27;19.40;99.90
18341;DHT22;9296;48.084;16.352;2022-07-18T06:06:54;19.60;99.90
18341;DHT22;9296;48.084;16.352;2022-07-18T06:09:21;19.70;99.90
18341;DHT22;9296;48.084;16.352;2022-07-18T06:11:48;19.90;99.90
18341;DHT22;9296;48.084;16.352;2022-07-18T06:14:15;20.10;99.90
18341;DHT22;9296;48.084;16.352;2022-07-18T06:16:42;20.10;99.90
18341;DHT22;9296;48.084;16.352;2022-07-18T06:19:09;20.10;99.90
18341;DHT22;9296;48.084;16.352;2022-07-18T06:21:37;20.30;99.90
18341;DHT22;9296;48.084;16.352;2022-07-18T06:24:05;20.40;99.90
18341;DHT22;9296;48.084;16.352;2022-07-18T06:26:32;20.50;99.90
18341;DHT22;9296;48.084;16.352;2022-07-18T06:28:59;20.60;99.90
18341;DHT22;9296;48.084;16.352;2022-07-18T06:31:26;20.80;99.90
18341;DHT22;9296;48.084;16.352;2022-07-18T06:33:53;20.80;99.90
18341;DHT22;9296;48.084;16.352;2022-07-18T06:36:19;20.90;99.90
18341;DHT22;9296;48.084;16.352;2022-07-18T06:38:51;20.90;99.90
18341;DHT22;9296;48.084;16.352;2022-07-18T06:41:18;21.00;99.90
18341;DHT22;9296;48.084;16.352;2022-07-18T06:43:45;21.20;99.90
18341;DHT22;9296;48.084;16.352;2022-07-18T06:46:12;21.40;99.90
18341;DHT22;9296;48.084;16.352;2022-07-18T06:48:39;21.60;99.90
18341;DHT22;9296;48.084;16.352;2022-07-18T06:54:30;21.70;99.90
18341;DHT22;9296;48.084;16.352;2022-07-18T06:56:58;21.70;99.90
18341;DHT22;9296;48.084;16.352;2022-07-18T06:59:25;21.70;99.90
18341;DHT22;9296;48.084;16.352;2022-07-18T07:01:52;21.70;99.90
18341;DHT22;9296;48.084;16.352;2022-07-18T07:04:19;21.70;99.90
18341;DHT22;9296;48.084;16.352;2022-07-18T07:06:46;21.90;99.90
18341;DHT22;9296;48.084;16.352;2022-07-18T07:09:13;22.10;99.70
18341;DHT22;9296;48.084;16.352;2022-07-18T07:11:41;22.20;99.90
18341;DHT22;9296;48.084;16.352;2022-07-18T07:14:08;22.30;99.90
18341;DHT22;9296;48.084;16.352;2022-07-18T07:16:35;22.40;99.30
18341;DHT22;9296;48.084;16.352;2022-07-18T07:19:02;22.60;99.20
18341;DHT22;9296;48.084;16.352;2022-07-18T07:21:29;22.60;99.90
18341;DHT22;9296;48.084;16.352;2022-07-18T07:23:56;22.70;98.80
18341;DHT22;9296;48.084;16.352;2022-07-18T07:26:23;22.90;99.20
18341;DHT22;9296;48.084;16.352;2022-07-18T07:28:51;23.10;98.30
18341;DHT22;9296;48.084;16.352;2022-07-18T07:31:18;23.30;98.10
18341;DHT22;9296;48.084;16.352;2022-07-18T07:33:45;23.50;98.40
18341;DHT22;9296;48.084;16.352;2022-07-18T07:36:12;23.90;99.70
18341;DHT22;9296;48.084;16.352;2022-07-18T07:38:39;24.30;97.70
18341;DHT22;9296;48.084;16.352;2022-07-18T07:41:06;25.00;95.70
18341;DHT22;9296;48.084;16.352;2022-07-18T07:43:33;25.60;94.30
18341;DHT22;9296;48.084;16.352;2022-07-18T07:46:03;26.30;94.00
18341;DHT22;9296;48.084;16.352;2022-07-18T07:48:30;26.70;96.10
18341;DHT22;9296;48.084;16.352;2022-07-18T07:54:19;28.20;83.00
18341;DHT22;9296;48.084;16.352;2022-07-18T08:04:08;29.10;76.80
18341;DHT22;9296;48.084;16.352;2022-07-18T08:06:36;30.50;67.10
18341;DHT22;9296;48.084;16.352;2022-07-18T08:09:03;30.70;66.70
18341;DHT22;9296;48.084;16.352;2022-07-18T08:11:32;31.20;64.40
18341;DHT22;9296;48.084;16.352;2022-07-18T08:13:59;31.40;61.10
18341;DHT22;9296;48.084;16.352;2022-07-18T08:16:26;32.00;67.60
18341;DHT22;9296;48.084;16.352;2022-07-18T08:18:54;32.10;68.70
18341;DHT22;9296;48.084;16.352;2022-07-18T08:21:21;32.50;72.40
18341;DHT22;9296;48.084;16.352;2022-07-18T08:23:48;32.80;61.20
18341;DHT22;9296;48.084;16.352;2022-07-18T08:26:14;32.70;61.40
18341;DHT22;9296;48.084;16.352;2022-07-18T08:28:42;32.30;55.60
18341;DHT22;9296;48.084;16.352;2022-07-18T08:31:09;32.00;54.10
18341;DHT22;9296;48.084;16.352;2022-07-18T08:33:36;31.80;52.60
18341;DHT22;9296;48.084;16.352;2022-07-18T08:36:05;31.70;54.40
18341;DHT22;9296;48.084;16.352;2022-07-18T08:38:33;31.90;51.70
18341;DHT22;9296;48.084;16.352;2022-07-18T08:41:00;32.20;59.90
18341;DHT22;9296;48.084;16.352;2022-07-18T08:43:27;32.50;60.40
18341;DHT22;9296;48.084;16.352;2022-07-18T08:45:56;32.90;51.70
18341;DHT22;9296;48.084;16.352;2022-07-18T08:48:23;32.30;53.50
18341;DHT22;9296;48.084;16.352;2022-07-18T08:50:51;32.80;60.40
18341;DHT22;9296;48.084;16.352;2022-07-18T08:53:19;33.00;57.10
18341;DHT22;9296;48.084;16.352;2022-07-18T08:55:47;33.60;61.10
18341;DHT22;9296;48.084;16.352;2022-07-18T08:58:15;34.00;51.20
18341;DHT22;9296;48.084;16.352;2022-07-18T09:00:43;33.30;49.50
18341;DHT22;9296;48.084;16.352;2022-07-18T09:03:11;32.90;59.50
18341;DHT22;9296;48.084;16.352;2022-07-18T09:05:38;33.10;51.00
18341;DHT22;9296;48.084;16.352;2022-07-18T09:08:11;33.10;48.20
18341;DHT22;9296;48.084;16.352;2022-07-18T09:10:49;32.80;54.20
18341;DHT22;9296;48.084;16.352;2022-07-18T09:13:17;33.10;51.50
18341;DHT22;9296;48.084;16.352;2022-07-18T09:16:00;33.70;53.70
18341;DHT22;9296;48.084;16.352;2022-07-18T09:18:28;34.10;48.50
18341;DHT22;9296;48.084;16.352;2022-07-18T09:20:59;33.60;48.80
18341;DHT22;9296;48.084;16.352;2022-07-18T09:23:28;33.90;60.60
18341;DHT22;9296;48.084;16.352;2022-07-18T09:25:58;33.60;47.50
18341;DHT22;9296;48.084;16.352;2022-07-18T09:28:26;33.20;56.40
18341;DHT22;9296;48.084;16.352;2022-07-18T09:30:53;33.00;49.50
18341;DHT22;9296;48.084;16.352;2022-07-18T09:33:20;32.50;49.80
18341;DHT22;9296;48.084;16.352;2022-07-18T09:35:49;32.30;53.80
18341;DHT22;9296;48.084;16.352;2022-07-18T09:38:18;32.50;50.60
18341;DHT22;9296;48.084;16.352;2022-07-18T09:40:48;32.30;48.80
18341;DHT22;9296;48.084;16.352;2022-07-18T09:43:19;32.00;49.70
18341;DHT22;9296;48.084;16.352;2022-07-18T09:45:48;32.00;50.90
18341;DHT22;9296;48.084;16.352;2022-07-18T09:48:17;32.50;54.80
18341;DHT22;9296;48.084;16.352;2022-07-18T09:50:50;33.00;52.00
18341;DHT22;9296;48.084;16.352;2022-07-18T09:53:19;33.20;54.50
18341;DHT22;9296;48.084;16.352;2022-07-18T09:55:50;33.50;53.80
18341;DHT22;9296;48.084;16.352;2022-07-18T09:58:20;33.30;48.80
18341;DHT22;9296;48.084;16.352;2022-07-18T10:00:49;32.60;46.80
18341;DHT22;9296;48.084;16.352;2022-07-18T10:03:17;32.50;52.70
18341;DHT22;9296;48.084;16.352;2022-07-18T10:05:46;32.70;55.60
18341;DHT22;9296;48.084;16.352;2022-07-18T10:08:15;32.70;47.80
18341;DHT22;9296;48.084;16.352;2022-07-18T10:10:44;32.70;48.30
18341;DHT22;9296;48.084;16.352;2022-07-18T10:13:12;32.70;50.30
18341;DHT22;9296;48.084;16.352;2022-07-18T10:15:42;32.90;48.30
18341;DHT22;9296;48.084;16.352;2022-07-18T10:18:10;32.50;46.40
18341;DHT22;9296;48.084;16.352;2022-07-18T10:20:39;32.10;47.40
18341;DHT22;9296;48.084;16.352;2022-07-18T10:23:14;32.20;53.00
18341;DHT22;9296;48.084;16.352;2022-07-18T10:25:42;32.60;52.80
18341;DHT22;9296;48.084;16.352;2022-07-18T10:28:10;33.00;51.20
18341;DHT22;9296;48.084;16.352;2022-07-18T10:30:54;33.30;51.00
18341;DHT22;9296;48.084;16.352;2022-07-18T10:33:39;33.60;55.00
18341;DHT22;9296;48.084;16.352;2022-07-18T10:36:09;34.20;50.50
18341;DHT22;9296;48.084;16.352;2022-07-18T10:38:37;34.80;49.80
18341;DHT22;9296;48.084;16.352;2022-07-18T10:41:09;34.80;42.80
18341;DHT22;9296;48.084;16.352;2022-07-18T10:43:39;34.30;40.90
18341;DHT22;9296;48.084;16.352;2022-07-18T10:46:09;33.40;41.20
18341;DHT22;9296;48.084;16.352;2022-07-18T10:48:55;32.50;42.90
18341;DHT22;9296;48.084;16.352;2022-07-18T10:51:31;32.30;48.70
18341;DHT22;9296;48.084;16.352;2022-07-18T10:54:04;32.30;46.50
18341;DHT22;9296;48.084;16.352;2022-07-18T10:57:08;32.40;47.50
18341;DHT22;9296;48.084;16.352;2022-07-18T10:59:58;32.50;47.20
18341;DHT22;9296;48.084;16.352;2022-07-18T11:02:36;32.50;45.50
18341;DHT22;9296;48.084;16.352;2022-07-18T11:05:33;32.10;44.70
18341;DHT22;9296;48.084;16.352;2022-07-18T11:08:19;31.40;43.70
18341;DHT22;9296;48.084;16.352;2022-07-18T11:11:07;31.40;48.70
18341;DHT22;9296;48.084;16.352;2022-07-18T11:13:35;31.60;51.70
18341;DHT22;9296;48.084;16.352;2022-07-18T11:16:05;31.80;48.10
18341;DHT22;9296;48.084;16.352;2022-07-18T11:21:43;32.00;44.40
18341;DHT22;9296;48.084;16.352;2022-07-18T11:24:12;31.90;47.40
18341;DHT22;9296;48.084;16.352;2022-07-18T11:26:44;32.00;45.10
18341;DHT22;9296;48.084;16.352;2022-07-18T11:29:13;32.10;47.80
18341;DHT22;9296;48.084;16.352;2022-07-18T11:31:45;32.00;45.20
18341;DHT22;9296;48.084;16.352;2022-07-18T11:34:14;32.00;47.30
18341;DHT22;9296;48.084;16.352;2022-07-18T11:36:43;31.60;47.50
18341;DHT22;9296;48.084;16.352;2022-07-18T11:39:11;31.70;45.00
18341;DHT22;9296;48.084;16.352;2022-07-18T11:41:40;31.70;46.30
18341;DHT22;9296;48.084;16.352;2022-07-18T11:44:16;31.70;43.00
18341;DHT22;9296;48.084;16.352;2022-07-18T11:46:44;31.70;44.70
18341;DHT22;9296;48.084;16.352;2022-07-18T11:49:10;31.80;43.60
18341;DHT22;9296;48.084;16.352;2022-07-18T11:51:44;31.60;43.10
18341;DHT22;9296;48.084;16.352;2022-07-18T11:54:12;31.60;47.70
18341;DHT22;9296;48.084;16.352;2022-07-18T11:56:50;31.50;43.40
18341;DHT22;9296;48.084;16.352;2022-07-18T11:59:17;31.40;46.20
18341;DHT22;9296;48.084;16.352;2022-07-18T12:01:45;31.20;46.70
18341;DHT22;9296;48.084;16.352;2022-07-18T12:04:18;31.20;45.10
18341;DHT22;9296;48.084;16.352;2022-07-18T12:07:14;31.30;43.10
18341;DHT22;9296;48.084;16.352;2022-07-18T12:09:41;31.00;42.80
18341;DHT22;9296;48.084;16.352;2022-07-18T12:12:09;30.80;42.90
18341;DHT22;9296;48.084;16.352;2022-07-18T12:14:36;30.90;46.80
18341;DHT22;9296;48.084;16.352;2022-07-18T12:17:05;31.10;45.70
18341;DHT22;9296;48.084;16.352;2022-07-18T12:19:33;31.10;44.10
18341;DHT22;9296;48.084;16.352;2022-07-18T12:22:07;31.00;46.60
18341;DHT22;9296;48.084;16.352;2022-07-18T12:24:36;31.00;47.00
18341;DHT22;9296;48.084;16.352;2022-07-18T12:27:15;30.90;45.80
18341;DHT22;9296;48.084;16.352;2022-07-18T12:30:01;30.80;46.10
18341;DHT22;9296;48.084;16.352;2022-07-18T12:32:38;30.70;44.20
18341;DHT22;9296;48.084;16.352;2022-07-18T12:35:07;30.70;43.60
18341;DHT22;9296;48.084;16.352;2022-07-18T12:43:30;30.60;43.30
18341;DHT22;9296;48.084;16.352;2022-07-18T12:45:58;30.50;44.10
18341;DHT22;9296;48.084;16.352;2022-07-18T12:48:27;30.50;43.40
